Time;durP1;ratioP1;P1;durP2;ratioP2;P2;SDS_P1;SDS_P2;PMS_P1;PMS_P2;Temp;Humidity;BMP_temperature;BMP_pressure;BME280_temperature;BME280_humidity;BME280_pressure;Samples;Min_cycle;Max_cycle;Signal;HPM_P1;HPM_P2
2023/09/29 00:02:06;;;;;;;2.57;2.03;;;;;;;;;;5081780;28;20262;-41
2023/09/29 00:04:34;;;;;;;2.50;2.30;;;;;;;;;;5074078;28;20214;-43
2023/09/29 00:07:02;;;;;;;2.30;2.10;;;;;;;;;;5077579;28;20235;-40
2023/09/29 00:09:29;;;;;;;2.97;2.20;;;;;;;;;;5078381;28;20271;-43
2023/09/29 00:11:56;;;;;;;2.07;1.87;;;;;;;;;;5082797;28;20216;-41
2023/09/29 00:14:25;;;;;;;2.60;1.93;;;;;;;;;;5087574;28;20197;-41
2023/09/29 00:16:52;;;;;;;3.57;2.00;;;;;;;;;;5079295;28;20232;-44
2023/09/29 00:19:20;;;;;;;1.97;1.87;;;;;;;;;;5069105;28;20218;-40
2023/09/29 00:21:47;;;;;;;3.27;2.30;;;;;;;;;;5078165;28;20272;-43
2023/09/29 00:24:14;;;;;;;3.33;2.00;;;;;;;;;;5070058;28;20221;-42
2023/09/29 00:26:41;;;;;;;2.83;2.40;;;;;;;;;;5078701;28;20662;-43
2023/09/29 00:29:08;;;;;;;3.20;2.40;;;;;;;;;;5077374;28;20205;-43
2023/09/29 00:31:37;;;;;;;5.80;2.30;;;;;;;;;;5077896;28;20216;-42
2023/09/29 00:34:04;;;;;;;6.97;2.53;;;;;;;;;;5070879;28;20292;-44
2023/09/29 00:36:31;;;;;;;2.87;2.30;;;;;;;;;;5082290;28;20220;-38
2023/09/29 00:38:59;;;;;;;2.57;1.87;;;;;;;;;;5079596;28;20205;-41
2023/09/29 00:41:26;;;;;;;2.90;2.20;;;;;;;;;;5082789;28;20212;-44
2023/09/29 00:43:53;;;;;;;2.37;1.90;;;;;;;;;;5080612;28;20231;-44
2023/09/29 00:46:20;;;;;;;3.67;2.17;;;;;;;;;;5083888;28;20212;-43
2023/09/29 00:48:49;;;;;;;2.47;2.10;;;;;;;;;;5084336;28;20196;-42
2023/09/29 00:51:20;;;;;;;2.40;2.20;;;;;;;;;;5078850;28;20228;-42
2023/09/29 00:53:48;;;;;;;4.60;2.47;;;;;;;;;;5088464;28;20528;-44
2023/09/29 00:56:15;;;;;;;3.90;2.30;;;;;;;;;;5075266;28;20258;-43
2023/09/29 00:58:43;;;;;;;2.23;2.00;;;;;;;;;;5083774;28;20197;-41
2023/09/29 01:01:11;;;;;;;2.10;1.90;;;;;;;;;;5072924;28;20228;-46
2023/09/29 01:03:39;;;;;;;2.63;1.97;;;;;;;;;;5088417;28;20223;-40
2023/09/29 01:06:08;;;;;;;4.33;2.30;;;;;;;;;;5079860;28;20209;-44
2023/09/29 01:08:36;;;;;;;3.60;2.10;;;;;;;;;;5073003;28;20617;-41
2023/09/29 01:11:04;;;;;;;5.77;2.10;;;;;;;;;;5085792;28;20243;-41
2023/09/29 01:13:31;;;;;;;3.63;2.20;;;;;;;;;;5088570;28;20208;-43
2023/09/29 01:15:59;;;;;;;2.60;1.83;;;;;;;;;;5071930;28;20345;-41
2023/09/29 01:18:26;;;;;;;2.90;2.50;;;;;;;;;;5080797;28;20200;-45
2023/09/29 01:20:53;;;;;;;4.50;2.73;;;;;;;;;;5074438;28;20231;-41
2023/09/29 01:23:23;;;;;;;3.27;2.40;;;;;;;;;;5086628;28;20200;-43
2023/09/29 01:25:51;;;;;;;4.27;2.50;;;;;;;;;;5085188;28;20515;-44
2023/09/29 01:28:19;;;;;;;3.13;2.53;;;;;;;;;;5079208;28;20208;-43
2023/09/29 01:30:47;;;;;;;5.90;2.53;;;;;;;;;;5077157;28;20220;-43
2023/09/29 01:33:15;;;;;;;4.87;2.77;;;;;;;;;;5084804;28;20278;-42
2023/09/29 01:35:43;;;;;;;2.53;2.33;;;;;;;;;;5077640;28;20265;-44
2023/09/29 01:38:10;;;;;;;2.50;1.87;;;;;;;;;;5076937;28;20206;-42
2023/09/29 01:40:38;;;;;;;2.83;2.40;;;;;;;;;;5072632;28;20227;-39
2023/09/29 01:43:07;;;;;;;2.30;1.97;;;;;;;;;;5081080;28;20212;-41
2023/09/29 01:45:34;;;;;;;2.30;2.10;;;;;;;;;;5077327;28;20328;-40
2023/09/29 01:48:01;;;;;;;3.57;2.50;;;;;;;;;;5078326;28;20208;-42
2023/09/29 01:50:28;;;;;;;3.03;2.20;;;;;;;;;;5085675;28;20221;-44
2023/09/29 01:52:55;;;;;;;2.30;2.10;;;;;;;;;;5087081;28;20205;-37
2023/09/29 01:55:24;;;;;;;3.63;2.27;;;;;;;;;;5067926;28;20209;-42
2023/09/29 01:57:53;;;;;;;5.13;2.40;;;;;;;;;;5083378;28;20208;-39
2023/09/29 02:00:23;;;;;;;2.50;2.30;;;;;;;;;;5088902;28;20224;-43
2023/09/29 02:02:50;;;;;;;3.57;2.53;;;;;;;;;;5080232;28;20296;-43
2023/09/29 02:05:18;;;;;;;3.47;2.50;;;;;;;;;;5079770;28;20229;-42
2023/09/29 02:07:45;;;;;;;3.07;2.00;;;;;;;;;;5079847;28;20204;-42
2023/09/29 02:10:13;;;;;;;3.73;2.33;;;;;;;;;;5083729;28;20236;-42
2023/09/29 02:12:46;;;;;;;4.63;2.10;;;;;;;;;;5080670;28;20200;-37
2023/09/29 02:15:13;;;;;;;3.37;2.47;;;;;;;;;;5077658;28;20225;-41
2023/09/29 02:17:42;;;;;;;3.97;2.47;;;;;;;;;;5077024;28;20209;-42
2023/09/29 02:20:14;;;;;;;2.93;2.30;;;;;;;;;;5076785;28;20311;-45
2023/09/29 02:22:41;;;;;;;3.80;2.53;;;;;;;;;;5085926;28;20201;-42
2023/09/29 02:25:10;;;;;;;2.57;2.17;;;;;;;;;;5077427;28;20330;-43
2023/09/29 02:27:37;;;;;;;2.50;1.97;;;;;;;;;;5090829;28;20212;-42
2023/09/29 02:30:05;;;;;;;2.43;2.23;;;;;;;;;;5092433;28;20228;-42
2023/09/29 02:32:34;;;;;;;3.23;1.97;;;;;;;;;;5079277;28;20197;-41
2023/09/29 02:35:02;;;;;;;3.60;2.83;;;;;;;;;;5088715;28;20252;-45
2023/09/29 02:37:30;;;;;;;2.27;1.97;;;;;;;;;;5076141;28;20201;-40
2023/09/29 02:39:58;;;;;;;3.20;2.40;;;;;;;;;;5071454;28;20232;-40
2023/09/29 02:42:25;;;;;;;2.77;2.33;;;;;;;;;;5083261;28;20206;-41
2023/09/29 02:44:52;;;;;;;2.43;2.23;;;;;;;;;;5082840;28;20220;-45
2023/09/29 02:47:20;;;;;;;3.43;2.77;;;;;;;;;;5079537;28;20197;-37
2023/09/29 02:49:47;;;;;;;3.63;2.27;;;;;;;;;;5083655;28;20278;-45
2023/09/29 02:52:16;;;;;;;2.83;2.20;;;;;;;;;;5083626;28;20201;-45
2023/09/29 02:54:43;;;;;;;1.93;1.80;;;;;;;;;;5071568;28;20213;-42
2023/09/29 02:57:10;;;;;;;5.33;2.80;;;;;;;;;;5083623;28;20291;-43
2023/09/29 02:59:37;;;;;;;2.73;2.37;;;;;;;;;;5084034;28;20221;-44
2023/09/29 03:02:05;;;;;;;3.63;2.53;;;;;;;;;;5082133;28;20230;-45
2023/09/29 03:04:32;;;;;;;2.67;2.27;;;;;;;;;;5091589;28;20311;-41
2023/09/29 03:06:59;;;;;;;2.60;2.33;;;;;;;;;;5086713;28;20204;-42
2023/09/29 03:09:29;;;;;;;3.00;2.37;;;;;;;;;;5083567;28;20231;-44
2023/09/29 03:11:58;;;;;;;4.67;2.47;;;;;;;;;;5085959;28;20205;-43
2023/09/29 03:14:26;;;;;;;3.60;2.23;;;;;;;;;;5091014;28;20287;-43
2023/09/29 03:16:54;;;;;;;2.93;2.40;;;;;;;;;;5082585;28;20673;-45
2023/09/29 03:19:21;;;;;;;3.10;2.00;;;;;;;;;;5082746;28;20225;-38
2023/09/29 03:21:49;;;;;;;2.47;2.27;;;;;;;;;;5082929;28;20208;-40
2023/09/29 03:24:16;;;;;;;5.33;2.30;;;;;;;;;;5082503;28;20726;-44
2023/09/29 03:26:49;;;;;;;2.87;2.50;;;;;;;;;;5085370;28;20211;-43
2023/09/29 03:29:17;;;;;;;2.73;2.20;;;;;;;;;;5083755;28;20259;-42
2023/09/29 03:31:46;;;;;;;2.77;2.43;;;;;;;;;;5070969;28;20215;-42
2023/09/29 03:34:13;;;;;;;2.77;2.33;;;;;;;;;;5087356;28;20205;-45
2023/09/29 03:36:41;;;;;;;3.27;2.13;;;;;;;;;;5078040;28;20208;-44
2023/09/29 03:39:09;;;;;;;3.10;2.37;;;;;;;;;;5071612;28;20243;-41
2023/09/29 03:41:36;;;;;;;2.40;2.20;;;;;;;;;;5076705;28;20247;-42
2023/09/29 03:44:05;;;;;;;4.70;2.50;;;;;;;;;;5089634;28;20222;-45
2023/09/29 03:46:32;;;;;;;2.33;2.07;;;;;;;;;;5085692;28;20236;-42
2023/09/29 03:48:59;;;;;;;2.20;2.00;;;;;;;;;;5071386;28;20204;-42
2023/09/29 03:51:27;;;;;;;3.57;2.60;;;;;;;;;;5078970;28;20233;-44
2023/09/29 03:53:54;;;;;;;3.47;2.23;;;;;;;;;;5078637;28;20200;-42
2023/09/29 03:56:23;;;;;;;2.17;1.97;;;;;;;;;;5082977;28;20214;-39
2023/09/29 03:58:50;;;;;;;2.80;1.87;;;;;;;;;;5079601;28;20206;-42
2023/09/29 04:01:19;;;;;;;3.47;2.00;;;;;;;;;;5086721;28;20249;-41
2023/09/29 04:03:46;;;;;;;4.43;2.50;;;;;;;;;;5083084;28;20197;-43
2023/09/29 04:06:14;;;;;;;2.77;2.37;;;;;;;;;;5085947;28;20228;-44
2023/09/29 04:08:41;;;;;;;2.20;2.00;;;;;;;;;;5075327;28;20205;-40
2023/09/29 04:11:08;;;;;;;3.40;2.57;;;;;;;;;;5075082;28;20602;-45
2023/09/29 04:13:36;;;;;;;3.93;2.50;;;;;;;;;;5089954;28;20291;-42
2023/09/29 04:16:04;;;;;;;2.90;2.43;;;;;;;;;;5081639;28;20296;-42
2023/09/29 04:18:33;;;;;;;3.67;2.10;;;;;;;;;;5089692;28;20211;-45
2023/09/29 04:21:01;;;;;;;2.77;2.37;;;;;;;;;;5086475;28;20232;-41
2023/09/29 04:23:28;;;;;;;2.37;2.17;;;;;;;;;;5085635;28;20209;-41
2023/09/29 04:25:55;;;;;;;2.00;1.80;;;;;;;;;;5074863;28;20226;-43
2023/09/29 04:28:23;;;;;;;3.17;2.00;;;;;;;;;;5087033;28;20205;-43
2023/09/29 04:30:50;;;;;;;3.20;2.63;;;;;;;;;;5082638;28;20240;-42
2023/09/29 04:33:18;;;;;;;2.47;2.27;;;;;;;;;;5079878;28;20205;-44
2023/09/29 04:35:47;;;;;;;2.73;2.37;;;;;;;;;;5081683;28;20594;-41
2023/09/29 04:38:14;;;;;;;2.57;2.00;;;;;;;;;;5072935;28;20319;-38
2023/09/29 04:40:41;;;;;;;2.10;1.90;;;;;;;;;;5077046;28;20292;-45
2023/09/29 04:43:08;;;;;;;1.90;1.80;;;;;;;;;;5082435;28;20210;-39
2023/09/29 04:45:35;;;;;;;1.93;1.83;;;;;;;;;;5083451;28;20220;-43
2023/09/29 04:48:02;;;;;;;5.70;2.50;;;;;;;;;;5080434;28;20288;-37
2023/09/29 04:50:30;;;;;;;3.27;2.40;;;;;;;;;;5080744;28;20580;-41
2023/09/29 04:52:58;;;;;;;4.97;2.53;;;;;;;;;;5078479;28;20212;-43
2023/09/29 04:55:27;;;;;;;2.13;1.70;;;;;;;;;;5078811;28;20204;-45
2023/09/29 04:57:54;;;;;;;5.93;2.47;;;;;;;;;;5085651;28;20212;-42
2023/09/29 05:00:22;;;;;;;4.60;2.27;;;;;;;;;;5078115;28;20233;-42
2023/09/29 05:02:49;;;;;;;3.87;2.67;;;;;;;;;;5070192;28;20284;-44
2023/09/29 05:05:16;;;;;;;3.33;2.67;;;;;;;;;;5071559;28;20257;-44
2023/09/29 05:07:44;;;;;;;3.63;2.87;;;;;;;;;;5088013;28;20204;-43
2023/09/29 05:10:14;;;;;;;2.90;2.37;;;;;;;;;;5087061;28;20232;-36
2023/09/29 05:12:43;;;;;;;2.70;2.23;;;;;;;;;;5087039;28;20212;-43
2023/09/29 05:15:11;;;;;;;4.07;2.30;;;;;;;;;;5081032;28;20318;-40
2023/09/29 05:17:38;;;;;;;4.63;2.20;;;;;;;;;;5083942;28;20201;-40
2023/09/29 05:20:06;;;;;;;7.40;3.27;;;;;;;;;;5083084;28;20323;-40
2023/09/29 05:22:34;;;;;;;5.63;4.03;;;;;;;;;;5082511;28;20212;-41
2023/09/29 05:25:01;;;;;;;4.43;3.93;;;;;;;;;;5092140;28;20251;-41
2023/09/29 05:27:31;;;;;;;4.40;3.07;;;;;;;;;;5087059;28;20208;-36
2023/09/29 05:29:59;;;;;;;4.00;3.50;;;;;;;;;;5091155;28;20581;-40
2023/09/29 05:32:26;;;;;;;4.63;3.87;;;;;;;;;;5089595;28;20282;-37
2023/09/29 05:34:53;;;;;;;4.77;4.07;;;;;;;;;;5089441;28;20204;-38
2023/09/29 05:37:21;;;;;;;4.90;3.90;;;;;;;;;;5086719;28;20212;-39
2023/09/29 05:39:49;;;;;;;4.30;3.30;;;;;;;;;;5092307;28;20221;-43
2023/09/29 05:42:20;;;;;;;3.53;3.00;;;;;;;;;;5087824;28;20231;-41
2023/09/29 05:44:48;;;;;;;4.63;2.87;;;;;;;;;;5085569;28;20235;-38
2023/09/29 05:47:16;;;;;;;4.00;2.80;;;;;;;;;;5079087;28;20229;-41
2023/09/29 05:49:44;;;;;;;3.20;2.47;;;;;;;;;;5082977;28;20217;-43
2023/09/29 05:52:11;;;;;;;3.50;2.77;;;;;;;;;;5086671;28;20208;-41
2023/09/29 05:54:39;;;;;;;3.73;2.83;;;;;;;;;;5087348;28;20304;-42
2023/09/29 05:57:06;;;;;;;3.47;2.47;;;;;;;;;;5087785;28;20215;-40
2023/09/29 05:59:33;;;;;;;6.23;2.43;;;;;;;;;;5086408;28;20257;-40
2023/09/29 06:02:02;;;;;;;3.77;2.27;;;;;;;;;;5078610;28;20687;-43
2023/09/29 06:04:29;;;;;;;5.77;2.80;;;;;;;;;;5086617;28;20231;-42
2023/09/29 06:06:56;;;;;;;3.87;2.43;;;;;;;;;;5086791;28;20225;-40
2023/09/29 06:09:26;;;;;;;3.33;2.47;;;;;;;;;;5085322;28;20238;-44
2023/09/29 06:11:53;;;;;;;3.83;2.33;;;;;;;;;;5088219;28;20215;-44
2023/09/29 06:14:20;;;;;;;3.33;2.53;;;;;;;;;;5083379;28;20322;-43
2023/09/29 06:16:47;;;;;;;5.40;2.80;;;;;;;;;;5088979;28;20204;-39
2023/09/29 06:19:16;;;;;;;4.80;2.43;;;;;;;;;;5081972;28;20299;-42
2023/09/29 06:21:44;;;;;;;2.77;2.33;;;;;;;;;;5082316;28;20288;-37
2023/09/29 06:24:11;;;;;;;4.00;2.23;;;;;;;;;;5090357;28;20236;-42
2023/09/29 06:26:40;;;;;;;2.87;2.50;;;;;;;;;;5078946;28;20221;-39
2023/09/29 06:29:07;;;;;;;2.83;2.23;;;;;;;;;;5090237;28;20207;-41
2023/09/29 06:31:34;;;;;;;5.27;3.00;;;;;;;;;;5085981;28;20292;-40
2023/09/29 06:34:02;;;;;;;2.67;2.47;;;;;;;;;;5085863;28;20213;-38
2023/09/29 06:36:30;;;;;;;3.00;2.53;;;;;;;;;;5086455;28;20207;-45
2023/09/29 06:38:58;;;;;;;2.73;2.30;;;;;;;;;;5093490;28;20243;-44
2023/09/29 06:41:25;;;;;;;3.97;2.87;;;;;;;;;;5079131;28;20290;-43
2023/09/29 06:43:53;;;;;;;4.50;2.40;;;;;;;;;;5087385;28;20209;-42
2023/09/29 06:46:20;;;;;;;4.07;2.80;;;;;;;;;;5081926;28;20216;-40
2023/09/29 06:48:47;;;;;;;4.30;2.80;;;;;;;;;;5085628;28;20212;-44
2023/09/29 06:51:14;;;;;;;3.33;2.93;;;;;;;;;;5089150;28;20233;-44
2023/09/29 06:53:43;;;;;;;7.30;2.57;;;;;;;;;;5093830;28;20208;-45
2023/09/29 06:56:10;;;;;;;5.00;2.90;;;;;;;;;;5089957;28;20291;-45
2023/09/29 06:58:37;;;;;;;3.40;3.10;;;;;;;;;;5087333;28;20247;-38
2023/09/29 07:01:05;;;;;;;6.97;6.33;;;;;;;;;;5090090;28;20225;-45
2023/09/29 07:03:33;;;;;;;12.33;11.43;;;;;;;;;;5089867;28;20197;-43
2023/09/29 07:06:01;;;;;;;15.13;14.13;;;;;;;;;;5081946;28;20228;-43
2023/09/29 07:08:28;;;;;;;13.83;12.73;;;;;;;;;;5087973;28;20201;-43
2023/09/29 07:10:56;;;;;;;17.97;16.60;;;;;;;;;;5086823;28;20234;-43
2023/09/29 07:13:23;;;;;;;6.43;5.93;;;;;;;;;;5087961;28;20208;-39
2023/09/29 07:15:51;;;;;;;6.60;6.10;;;;;;;;;;5087439;28;20201;-41
2023/09/29 07:18:18;;;;;;;5.43;4.50;;;;;;;;;;5074225;28;20296;-42
2023/09/29 07:20:45;;;;;;;10.07;9.37;;;;;;;;;;5088792;28;20235;-42
2023/09/29 07:23:12;;;;;;;6.67;6.03;;;;;;;;;;5081879;28;20239;-45
2023/09/29 07:25:40;;;;;;;6.27;4.67;;;;;;;;;;5090031;28;20231;-43
2023/09/29 07:28:13;;;;;;;6.17;5.27;;;;;;;;;;5090390;28;20303;-43
2023/09/29 07:30:42;;;;;;;5.40;4.90;;;;;;;;;;5078812;28;20225;-41
2023/09/29 07:33:09;;;;;;;5.77;3.50;;;;;;;;;;5081717;28;20248;-45
2023/09/29 07:35:37;;;;;;;6.87;4.10;;;;;;;;;;5085609;28;20204;-41
2023/09/29 07:38:04;;;;;;;5.67;3.30;;;;;;;;;;5091814;28;20208;-41
2023/09/29 07:40:32;;;;;;;5.60;4.13;;;;;;;;;;5080438;28;20961;-43
2023/09/29 07:42:59;;;;;;;7.53;6.93;;;;;;;;;;5091598;28;20279;-43
2023/09/29 07:45:28;;;;;;;5.83;4.03;;;;;;;;;;5081663;28;20235;-44
2023/09/29 07:47:55;;;;;;;4.77;3.23;;;;;;;;;;5086586;28;20216;-41
2023/09/29 07:50:23;;;;;;;4.60;4.23;;;;;;;;;;5078774;28;20235;-41
2023/09/29 07:52:50;;;;;;;6.10;5.07;;;;;;;;;;5078368;28;20204;-41
2023/09/29 07:55:18;;;;;;;6.93;6.23;;;;;;;;;;5079236;28;20300;-42
2023/09/29 07:57:45;;;;;;;6.47;4.03;;;;;;;;;;5090136;28;20205;-40
2023/09/29 08:00:15;;;;;;;5.60;3.73;;;;;;;;;;5084120;28;20292;-44
2023/09/29 08:02:44;;;;;;;4.90;4.50;;;;;;;;;;5072481;28;20233;-41
2023/09/29 08:05:13;;;;;;;4.27;3.87;;;;;;;;;;5078011;28;20216;-44
2023/09/29 08:07:40;;;;;;;3.70;3.40;;;;;;;;;;5082937;28;20305;-40
2023/09/29 08:10:08;;;;;;;4.73;3.30;;;;;;;;;;5091393;28;20292;-41
2023/09/29 08:12:37;;;;;;;5.20;3.30;;;;;;;;;;5089047;28;20259;-39
2023/09/29 08:15:05;;;;;;;4.90;3.47;;;;;;;;;;5077091;28;20215;-40
2023/09/29 08:17:32;;;;;;;5.93;3.63;;;;;;;;;;5082328;28;20201;-40
2023/09/29 08:20:00;;;;;;;6.93;3.47;;;;;;;;;;5084935;28;20368;-44
2023/09/29 08:22:27;;;;;;;6.73;3.83;;;;;;;;;;5082013;28;20271;-43
2023/09/29 08:24:54;;;;;;;5.77;4.30;;;;;;;;;;5087464;28;20201;-42
2023/09/29 08:27:21;;;;;;;4.53;3.20;;;;;;;;;;5091433;28;20216;-37
2023/09/29 08:29:48;;;;;;;4.23;3.47;;;;;;;;;;5084770;28;20225;-41
2023/09/29 08:32:15;;;;;;;5.33;2.90;;;;;;;;;;5092439;28;20215;-40
2023/09/29 08:34:42;;;;;;;4.43;3.67;;;;;;;;;;5089849;28;20272;-40
2023/09/29 08:37:11;;;;;;;3.93;3.30;;;;;;;;;;5087282;28;20205;-40
2023/09/29 08:39:39;;;;;;;4.93;3.63;;;;;;;;;;5083205;28;20232;-37
2023/09/29 08:42:10;;;;;;;6.10;3.23;;;;;;;;;;5084553;28;20215;-40
2023/09/29 08:44:38;;;;;;;6.23;3.70;;;;;;;;;;5083696;28;20232;-40
2023/09/29 08:47:06;;;;;;;4.40;3.77;;;;;;;;;;5076837;28;20218;-40
2023/09/29 08:49:35;;;;;;;4.27;3.30;;;;;;;;;;5075952;28;20228;-41
2023/09/29 08:52:03;;;;;;;4.13;3.20;;;;;;;;;;5087419;28;20212;-43
2023/09/29 08:54:32;;;;;;;3.83;3.23;;;;;;;;;;5090011;28;20216;-42
2023/09/29 08:57:00;;;;;;;4.50;3.70;;;;;;;;;;5084779;28;20204;-40
2023/09/29 08:59:29;;;;;;;6.83;3.77;;;;;;;;;;5083922;28;20231;-38
2023/09/29 09:01:58;;;;;;;6.53;3.27;;;;;;;;;;5078541;28;20209;-40
2023/09/29 09:04:27;;;;;;;4.03;3.00;;;;;;;;;;5079124;28;20212;-44
2023/09/29 09:06:54;;;;;;;3.87;3.40;;;;;;;;;;5080176;28;20483;-44
2023/09/29 09:09:23;;;;;;;4.40;3.10;;;;;;;;;;5089027;28;20231;-44
2023/09/29 09:11:53;;;;;;;7.27;3.43;;;;;;;;;;5085890;28;20196;-42
2023/09/29 09:14:20;;;;;;;5.27;3.13;;;;;;;;;;5090321;28;20303;-43
2023/09/29 09:16:47;;;;;;;5.50;3.53;;;;;;;;;;5084253;28;20200;-42
2023/09/29 09:19:15;;;;;;;3.23;2.97;;;;;;;;;;5082678;28;20220;-44
2023/09/29 09:21:43;;;;;;;6.73;3.50;;;;;;;;;;5083072;28;20202;-43
2023/09/29 09:24:19;;;;;;;3.90;2.93;;;;;;;;;;5091152;28;20494;-44
2023/09/29 09:26:47;;;;;;;5.07;3.50;;;;;;;;;;5081928;28;20227;-40
2023/09/29 09:29:16;;;;;;;3.83;2.60;;;;;;;;;;5091706;28;20205;-43
2023/09/29 09:31:44;;;;;;;3.83;3.00;;;;;;;;;;5081157;28;20205;-43
2023/09/29 09:34:13;;;;;;;5.27;2.80;;;;;;;;;;5078750;28;20237;-44
2023/09/29 09:36:51;;;;;;;4.47;2.90;;;;;;;;;;5088719;28;20210;-42
2023/09/29 09:39:22;;;;;;;7.87;3.07;;;;;;;;;;5078249;28;20224;-43
2023/09/29 09:41:50;;;;;;;3.90;2.70;;;;;;;;;;5091060;28;20197;-43
2023/09/29 09:44:20;;;;;;;7.50;3.03;;;;;;;;;;5095144;28;20255;-44
2023/09/29 09:46:53;;;;;;;3.53;2.70;;;;;;;;;;5082978;28;20216;-43
2023/09/29 09:49:24;;;;;;;4.47;3.30;;;;;;;;;;5073929;28;20231;-42
2023/09/29 09:51:53;;;;;;;3.27;2.90;;;;;;;;;;5082063;28;20210;-42
2023/09/29 09:54:21;;;;;;;16.90;2.90;;;;;;;;;;5083814;28;20255;-43
2023/09/29 09:56:52;;;;;;;3.53;3.20;;;;;;;;;;5086277;28;20297;-41
2023/09/29 09:59:20;;;;;;;4.93;2.90;;;;;;;;;;5086820;28;20283;-39
2023/09/29 10:01:48;;;;;;;4.50;2.87;;;;;;;;;;5075745;28;20282;-43
2023/09/29 10:04:16;;;;;;;4.50;2.73;;;;;;;;;;5081628;28;20214;-41
2023/09/29 10:06:44;;;;;;;2.83;2.57;;;;;;;;;;5082458;28;20237;-41
2023/09/29 10:09:12;;;;;;;5.30;3.03;;;;;;;;;;5082902;28;20213;-43
2023/09/29 10:11:42;;;;;;;4.17;3.23;;;;;;;;;;5082517;28;20210;-41
2023/09/29 10:14:10;;;;;;;5.17;3.13;;;;;;;;;;5095028;28;20212;-44
2023/09/29 10:16:39;;;;;;;4.20;3.00;;;;;;;;;;5084297;28;20203;-41
2023/09/29 10:19:10;;;;;;;2.63;2.27;;;;;;;;;;5082108;28;20218;-40
2023/09/29 10:21:45;;;;;;;3.67;2.87;;;;;;;;;;5079198;28;20210;-43
2023/09/29 10:24:13;;;;;;;3.77;3.00;;;;;;;;;;5091245;28;20213;-41
2023/09/29 10:26:44;;;;;;;9.30;2.60;;;;;;;;;;5088571;28;20251;-42
2023/09/29 10:29:18;;;;;;;6.20;3.00;;;;;;;;;;5090574;28;20289;-36
2023/09/29 10:31:48;;;;;;;4.50;3.10;;;;;;;;;;5078842;28;20200;-41
2023/09/29 10:34:20;;;;;;;6.53;2.97;;;;;;;;;;5086803;28;20251;-40
2023/09/29 10:36:54;;;;;;;3.70;2.83;;;;;;;;;;5088779;28;20200;-43
2023/09/29 10:39:25;;;;;;;7.00;3.37;;;;;;;;;;5082886;28;20223;-41
2023/09/29 10:41:59;;;;;;;2.50;2.30;;;;;;;;;;5088874;28;20209;-42
2023/09/29 10:44:28;;;;;;;4.97;2.90;;;;;;;;;;5085746;28;20205;-44
2023/09/29 10:46:56;;;;;;;4.60;2.73;;;;;;;;;;5074529;28;20322;-42
2023/09/29 10:49:32;;;;;;;4.97;2.73;;;;;;;;;;5075117;28;20283;-39
2023/09/29 10:51:59;;;;;;;5.87;2.97;;;;;;;;;;5090268;28;20208;-39
2023/09/29 10:54:27;;;;;;;4.07;2.77;;;;;;;;;;5094085;28;20216;-39
2023/09/29 10:56:54;;;;;;;3.73;2.83;;;;;;;;;;5087387;28;20220;-43
2023/09/29 10:59:22;;;;;;;5.63;2.83;;;;;;;;;;5083038;28;20231;-45
2023/09/29 11:01:49;;;;;;;2.37;2.17;;;;;;;;;;5083410;28;20218;-44
2023/09/29 11:04:18;;;;;;;3.73;1.97;;;;;;;;;;5087594;28;20210;-44
2023/09/29 11:06:46;;;;;;;4.57;2.00;;;;;;;;;;5093395;28;20221;-40
2023/09/29 11:09:17;;;;;;;4.60;2.13;;;;;;;;;;5078692;28;20208;-41
2023/09/29 11:11:44;;;;;;;3.97;1.93;;;;;;;;;;5080294;28;20572;-45
2023/09/29 11:14:11;;;;;;;4.03;2.20;;;;;;;;;;5086629;28;20299;-41
2023/09/29 11:16:38;;;;;;;5.10;2.27;;;;;;;;;;5089376;28;20306;-40
2023/09/29 11:19:10;;;;;;;3.77;2.17;;;;;;;;;;5084004;28;20297;-44
2023/09/29 11:21:40;;;;;;;3.40;2.10;;;;;;;;;;5091035;28;20559;-42
2023/09/29 11:24:08;;;;;;;2.53;2.13;;;;;;;;;;5079581;28;20240;-42
2023/09/29 11:26:36;;;;;;;3.90;2.20;;;;;;;;;;5082348;28;20743;-38
2023/09/29 11:29:03;;;;;;;2.43;2.23;;;;;;;;;;5093174;28;20220;-41
2023/09/29 11:31:30;;;;;;;3.63;2.23;;;;;;;;;;5083801;28;20208;-43
2023/09/29 11:33:58;;;;;;;5.30;2.13;;;;;;;;;;5083733;28;20295;-43
2023/09/29 11:36:27;;;;;;;4.77;2.23;;;;;;;;;;5084503;28;20288;-44
2023/09/29 11:38:55;;;;;;;2.63;1.87;;;;;;;;;;5092987;28;20227;-41
2023/09/29 11:41:23;;;;;;;2.30;2.10;;;;;;;;;;5082383;28;20208;-40
2023/09/29 11:43:50;;;;;;;3.73;2.00;;;;;;;;;;5089853;28;20202;-42
2023/09/29 11:46:18;;;;;;;2.00;1.85;;;;;;;;;;5079719;28;20217;-40
2023/09/29 11:48:45;;;;;;;2.43;2.20;;;;;;;;;;5081955;28;20343;-43
2023/09/29 11:51:14;;;;;;;2.60;2.10;;;;;;;;;;5085748;28;20228;-39
2023/09/29 11:53:42;;;;;;;4.37;2.30;;;;;;;;;;5080595;28;20208;-43
2023/09/29 11:56:10;;;;;;;3.70;2.30;;;;;;;;;;5077339;28;20201;-41
2023/09/29 11:58:38;;;;;;;7.53;2.28;;;;;;;;;;5074865;28;20197;-42
2023/09/29 12:01:06;;;;;;;4.22;2.00;;;;;;;;;;5079215;28;20315;-43
2023/09/29 12:03:33;;;;;;;2.63;2.10;;;;;;;;;;5080287;28;20216;-40
2023/09/29 12:06:02;;;;;;;2.87;2.60;;;;;;;;;;5088212;28;20295;-46
2023/09/29 12:08:29;;;;;;;6.22;2.50;;;;;;;;;;5088925;28;20220;-43
2023/09/29 12:10:57;;;;;;;3.23;2.27;;;;;;;;;;5086873;28;20318;-42
2023/09/29 12:13:26;;;;;;;4.68;2.78;;;;;;;;;;5084225;28;20417;-42
2023/09/29 12:15:53;;;;;;;5.75;2.30;;;;;;;;;;5072444;28;20209;-40
2023/09/29 12:18:20;;;;;;;4.60;3.22;;;;;;;;;;5072775;28;20659;-44
2023/09/29 12:20:52;;;;;;;3.95;2.17;;;;;;;;;;5089393;28;20278;-40
2023/09/29 12:23:19;;;;;;;3.70;2.30;;;;;;;;;;5076198;28;20212;-42
2023/09/29 12:25:47;;;;;;;4.57;2.72;;;;;;;;;;5088171;28;20204;-39
2023/09/29 12:28:14;;;;;;;2.03;1.80;;;;;;;;;;5091586;28;20273;-38
2023/09/29 12:30:44;;;;;;;5.75;2.58;;;;;;;;;;5091745;28;20232;-42
2023/09/29 12:33:11;;;;;;;6.28;2.15;;;;;;;;;;5085777;28;20208;-42
2023/09/29 12:35:39;;;;;;;5.57;2.40;;;;;;;;;;5086582;28;20215;-41
2023/09/29 12:38:06;;;;;;;2.53;2.33;;;;;;;;;;5084647;28;20208;-40
2023/09/29 12:40:34;;;;;;;5.28;2.95;;;;;;;;;;5084669;28;20316;-42
2023/09/29 12:43:02;;;;;;;4.20;2.50;;;;;;;;;;5091259;28;20293;-42
2023/09/29 12:45:30;;;;;;;2.65;2.08;;;;;;;;;;5091930;28;20247;-44
2023/09/29 12:47:59;;;;;;;4.78;2.50;;;;;;;;;;5071428;28;20232;-43
2023/09/29 12:50:26;;;;;;;3.03;2.30;;;;;;;;;;5086411;28;20228;-42
2023/09/29 12:52:53;;;;;;;4.43;2.58;;;;;;;;;;5086659;28;20276;-38
2023/09/29 12:55:22;;;;;;;2.53;2.15;;;;;;;;;;5078748;28;20227;-43
2023/09/29 12:57:49;;;;;;;4.45;2.42;;;;;;;;;;5087387;28;20236;-43
2023/09/29 13:00:18;;;;;;;3.10;2.35;;;;;;;;;;5082613;28;20232;-45
2023/09/29 13:02:47;;;;;;;3.22;1.83;;;;;;;;;;5073810;28;20213;-39
2023/09/29 13:05:15;;;;;;;4.70;2.17;;;;;;;;;;5084471;28;20216;-44
2023/09/29 13:07:42;;;;;;;3.00;2.20;;;;;;;;;;5088074;28;20220;-43
2023/09/29 13:10:10;;;;;;;2.97;2.03;;;;;;;;;;5072030;28;20232;-37
2023/09/29 13:12:37;;;;;;;2.40;2.20;;;;;;;;;;5086022;28;20196;-41
2023/09/29 13:15:05;;;;;;;5.03;2.38;;;;;;;;;;5072229;28;20268;-39
2023/09/29 13:17:33;;;;;;;3.63;2.42;;;;;;;;;;5080071;28;20287;-39
2023/09/29 13:20:00;;;;;;;3.53;2.20;;;;;;;;;;5089579;28;20228;-43
2023/09/29 13:22:29;;;;;;;4.30;2.17;;;;;;;;;;5092116;28;20276;-41
2023/09/29 13:24:56;;;;;;;5.50;2.20;;;;;;;;;;5091826;28;20280;-42
2023/09/29 13:27:24;;;;;;;3.35;2.30;;;;;;;;;;5080583;28;20217;-41
2023/09/29 13:29:51;;;;;;;5.13;2.22;;;;;;;;;;5080007;28;20228;-43
2023/09/29 13:32:19;;;;;;;7.05;2.60;;;;;;;;;;5071781;28;20292;-41
2023/09/29 13:34:46;;;;;;;2.25;1.85;;;;;;;;;;5078712;28;20209;-44
2023/09/29 13:37:17;;;;;;;2.35;2.15;;;;;;;;;;5081578;28;20197;-38
2023/09/29 13:39:45;;;;;;;2.33;2.13;;;;;;;;;;5088391;28;20224;-41
2023/09/29 13:42:12;;;;;;;5.63;2.22;;;;;;;;;;5081323;28;20200;-44
2023/09/29 13:44:40;;;;;;;3.33;2.15;;;;;;;;;;5090044;28;20568;-46
2023/09/29 13:47:08;;;;;;;2.38;2.15;;;;;;;;;;5086448;28;20206;-45
2023/09/29 13:49:35;;;;;;;2.25;1.65;;;;;;;;;;5082241;28;20224;-41
2023/09/29 13:52:02;;;;;;;1.63;1.52;;;;;;;;;;5090939;28;20211;-42
2023/09/29 13:54:30;;;;;;;5.35;1.48;;;;;;;;;;5083453;28;20267;-39
2023/09/29 13:56:59;;;;;;;2.03;1.60;;;;;;;;;;5078656;28;20206;-45
2023/09/29 13:59:26;;;;;;;1.85;1.75;;;;;;;;;;5072691;28;20214;-41
2023/09/29 14:01:53;;;;;;;1.95;1.83;;;;;;;;;;5079988;28;20210;-42
2023/09/29 14:04:21;;;;;;;4.13;1.90;;;;;;;;;;5085559;28;20199;-36
2023/09/29 14:06:48;;;;;;;1.98;1.85;;;;;;;;;;5089603;28;20206;-39
2023/09/29 14:09:15;;;;;;;2.45;2.25;;;;;;;;;;5077187;28;20217;-42
2023/09/29 14:11:42;;;;;;;3.53;1.85;;;;;;;;;;5081339;28;20201;-43
2023/09/29 14:14:11;;;;;;;4.07;2.03;;;;;;;;;;5086084;28;20216;-44
2023/09/29 14:16:38;;;;;;;2.63;2.10;;;;;;;;;;5082487;28;20217;-43
2023/09/29 14:19:05;;;;;;;2.47;2.00;;;;;;;;;;5090077;28;20201;-45
2023/09/29 14:21:33;;;;;;;2.22;1.92;;;;;;;;;;5084846;28;20207;-42
2023/09/29 14:24:00;;;;;;;2.22;2.03;;;;;;;;;;5078289;28;20232;-44
2023/09/29 14:26:28;;;;;;;2.38;2.03;;;;;;;;;;5087459;28;20218;-45
2023/09/29 14:28:55;;;;;;;1.98;1.88;;;;;;;;;;5086339;28;20221;-41
2023/09/29 14:31:24;;;;;;;2.05;1.85;;;;;;;;;;5087646;28;20218;-43
2023/09/29 14:33:51;;;;;;;2.50;1.88;;;;;;;;;;5074610;28;20201;-42
2023/09/29 14:36:18;;;;;;;3.15;1.95;;;;;;;;;;5091613;28;20201;-44
2023/09/29 14:38:45;;;;;;;3.22;2.10;;;;;;;;;;5084232;28;20296;-43
2023/09/29 14:41:13;;;;;;;5.55;2.20;;;;;;;;;;5079420;28;20231;-44
2023/09/29 14:43:42;;;;;;;2.22;2.00;;;;;;;;;;5092969;28;20268;-41
2023/09/29 14:46:13;;;;;;;3.13;2.13;;;;;;;;;;5082119;28;20206;-38
2023/09/29 14:48:42;;;;;;;2.30;2.00;;;;;;;;;;5090242;28;20224;-44